LFRC 181630Z AUTO 25013KT 9999 FEW021 BKN074 19/15 Q1016 BECMG BKN008

ElémentsDécodage
LFRC Station météo située sur l'aérodrome de CHERBOURG Maupertus
181630Z émis le 18 du mois à 16h30 UTC
AUTO Bulletin édité par un automate
25013KT vent du 250°, 13 noeuds
9999 visibilité horizontale supérieure à 10 Km
FEW021 nuages rares (1/8 à 2/8) à 2100 pieds
BKN074 nuages morcelés (5/8 à 7/8) à 7400 pieds
19/15 température 19°C, point de rosée 15°C
 soit une humidité relative de 78%
Q1016 la pression au niveau de la mer (QNH) est de 1016 hPa
BECMG fluctuation du temps prévue
BKN008 nuages morcelés (5/8 à 7/8) à 800 pieds